Terminal Aerodrome Forecast
Issued by NWS Sterling, VA

Home | Current Version | Previous Version | Text Only | Print | Product List | Glossary On
Versions: 1 2 3 4 5 6 7 8 9 10 11 12 13 14 15 16 17 18 19 20 21 22 23 24
000
FTUS41 KLWX 182333
TAFIAD
TAF
KIAD 182333Z 1900/2006 00000KT P6SM FEW180 OVC250
     FM190500 36007KT P6SM SCT250
     FM191200 05011KT P6SM SCT250
     FM191500 09010KT P6SM SCT250
     FM191800 11010G21KT P6SM BKN100
     FM192200 09006KT 6SM -RA OVC025
     FM200000 10006KT 2SM -RA OVC008
     FM200400 09018KT 1SM RA OVC003=

USA.gov is the U.S. government's official web portal to all federal, state and local government web resources and services.